Time;durP1;ratioP1;P1;durP2;ratioP2;P2;SDS_P1;SDS_P2;PMS_P1;PMS_P2;Temp;Humidity;BMP_temperature;BMP_pressure;BME280_temperature;BME280_humidity;BME280_pressure;Samples;Min_cycle;Max_cycle;Signal;HPM_P1;HPM_P2
2021/10/13 00:00:33;;;;;;;73.70;51.22;;;256.10;2252.80;;;;;;5093541;28;20024;-81
2021/10/13 00:02:59;;;;;;;64.78;48.25;;;256.00;2252.80;;;;;;5093190;28;20024;-81
2021/10/13 00:05:24;;;;;;;80.05;56.15;;;231.30;2252.80;;;;;;5093405;28;20054;-80
2021/10/13 00:07:50;;;;;;;70.25;51.72;;;231.30;2252.80;;;;;;5093487;28;20027;-81
2021/10/13 00:10:16;;;;;;;74.45;54.90;;;231.30;2252.80;;;;;;5093043;28;20035;-80
2021/10/13 00:12:42;;;;;;;74.50;51.33;;;231.30;2252.80;;;;;;5093445;28;20036;-81
2021/10/13 00:15:10;;;;;;;77.68;52.13;;;231.30;2252.80;;;;;;5093158;28;20471;-80
2021/10/13 00:17:37;;;;;;;110.45;66.07;;;231.30;2252.80;;;;;;5094274;28;20091;-82
2021/10/13 00:20:05;;;;;;;150.98;85.53;;;231.20;2252.80;;;;;;5092986;28;20031;-81
2021/10/13 00:22:31;;;;;;;137.85;75.65;;;231.10;2252.80;;;;;;5093882;28;20111;-80
2021/10/13 00:24:57;;;;;;;115.32;71.85;;;231.20;2252.80;;;;;;5093897;28;20081;-81
2021/10/13 00:27:23;;;;;;;123.13;74.32;;;231.10;2252.80;;;;;;5093082;28;20020;-81
2021/10/13 00:29:49;;;;;;;118.95;70.93;;;231.10;2252.80;;;;;;5093973;28;20049;-80
2021/10/13 00:32:15;;;;;;;94.53;60.83;;;231.10;2252.80;;;;;;5092887;28;20039;-84
2021/10/13 00:34:40;;;;;;;85.32;55.40;;;231.00;2252.80;;;;;;5092651;28;20048;-81
2021/10/13 00:37:06;;;;;;;120.20;70.70;;;231.10;2252.80;;;;;;5092682;28;20044;-81
2021/10/13 00:39:32;;;;;;;107.57;66.85;;;231.10;2252.80;;;;;;5093028;28;20031;-81
2021/10/13 00:41:58;;;;;;;91.38;60.65;;;231.10;2252.80;;;;;;5094081;28;20028;-80
2021/10/13 00:44:24;;;;;;;93.97;59.30;;;230.90;2252.80;;;;;;5093737;28;20088;-82
2021/10/13 00:46:50;;;;;;;88.72;59.40;;;230.90;2252.80;;;;;;5092832;28;20110;-81
2021/10/13 00:49:16;;;;;;;95.82;64.00;;;230.90;2252.80;;;;;;5092949;28;20058;-81
2021/10/13 00:51:42;;;;;;;92.22;62.05;;;230.80;2252.80;;;;;;5094064;28;20359;-80
2021/10/13 00:54:09;;;;;;;131.90;91.43;;;230.90;2252.80;;;;;;5092703;28;20020;-81
2021/10/13 00:56:35;;;;;;;90.57;60.40;;;230.90;2252.80;;;;;;5092648;28;20471;-81
2021/10/13 00:59:01;;;;;;;92.07;65.15;;;230.90;2252.80;;;;;;5092382;28;20054;-80
2021/10/13 01:01:39;;;;;;;101.75;66.93;;;230.90;2252.80;;;;;;5093514;28;20443;-81
2021/10/13 01:04:25;;;;;;;96.65;64.78;;;231.00;2252.80;;;;;;5093838;28;20060;-82
2021/10/13 01:07:08;;;;;;;97.05;64.05;;;231.00;2252.80;;;;;;5091252;28;20468;-81
2021/10/13 01:09:45;;;;;;;79.35;55.55;;;231.10;2252.80;;;;;;5092658;28;20023;-81
2021/10/13 01:12:30;;;;;;;79.43;56.13;;;231.00;2252.80;;;;;;5093979;28;20024;-81
2021/10/13 01:15:33;;;;;;;68.15;50.58;;;230.90;2252.80;;;;;;5093039;28;20031;-80
2021/10/13 01:18:07;;;;;;;63.03;48.58;;;230.80;2252.80;;;;;;5092565;28;20119;-82
2021/10/13 01:21:02;;;;;;;50.75;38.72;;;230.80;2252.80;;;;;;5092223;28;20028;-81
2021/10/13 01:23:49;;;;;;;46.28;32.55;;;230.90;2252.80;;;;;;5092334;28;20031;-81
2021/10/13 01:26:41;;;;;;;48.67;35.35;;;230.90;2252.80;;;;;;5093035;28;20032;-81
2021/10/13 01:29:17;;;;;;;52.63;39.28;;;230.90;2252.80;;;;;;5093820;28;20028;-80
2021/10/13 01:31:50;;;;;;;62.78;45.45;;;230.90;2252.80;;;;;;5093977;28;20047;-81
2021/10/13 01:34:28;;;;;;;95.90;56.33;;;231.00;2252.80;;;;;;5093495;28;20082;-81
2021/10/13 01:37:00;;;;;;;85.63;50.40;;;231.00;2252.80;;;;;;5096140;28;20039;-82
2021/10/13 01:39:28;;;;;;;104.80;60.72;;;231.00;2252.80;;;;;;5096307;28;20024;-81
2021/10/13 01:41:56;;;;;;;73.80;50.10;;;231.00;2252.80;;;;;;5097121;28;20039;-81
2021/10/13 01:44:25;;;;;;;87.05;56.08;;;231.00;2252.80;;;;;;5097662;28;20024;-81
2021/10/13 01:46:51;;;;;;;76.82;54.75;;;231.00;2252.80;;;;;;5096921;28;20480;-81
2021/10/13 01:49:17;;;;;;;73.80;51.83;;;231.00;2252.80;;;;;;5095708;28;20030;-82
2021/10/13 01:51:44;;;;;;;74.90;56.03;;;230.90;2252.80;;;;;;5095961;28;20154;-83
2021/10/13 01:54:12;;;;;;;72.47;53.22;;;230.90;2252.80;;;;;;5095663;28;20486;-84
2021/10/13 01:56:40;;;;;;;70.13;49.67;;;230.90;2252.80;;;;;;5095898;28;20375;-85
2021/10/13 01:59:09;;;;;;;72.85;51.75;;;231.00;2252.80;;;;;;5095624;28;20459;-82
2021/10/13 02:01:36;;;;;;;57.88;41.75;;;231.00;2252.80;;;;;;5095583;28;20020;-81
2021/10/13 02:04:06;;;;;;;53.33;42.45;;;230.90;2252.80;;;;;;5095706;28;20487;-81
2021/10/13 02:06:34;;;;;;;48.08;35.80;;;230.90;2252.80;;;;;;5095777;28;20034;-82
2021/10/13 02:09:01;;;;;;;51.17;36.97;;;230.90;2252.80;;;;;;5096242;28;20024;-80
2021/10/13 02:11:29;;;;;;;58.10;43.22;;;230.90;2252.80;;;;;;5095584;28;20035;-81
2021/10/13 02:13:58;;;;;;;54.50;38.28;;;230.90;2252.80;;;;;;5096518;28;20028;-84
2021/10/13 02:16:25;;;;;;;39.28;29.50;;;230.90;2252.80;;;;;;5095156;28;20036;-81
2021/10/13 02:18:52;;;;;;;40.83;29.67;;;230.90;2252.80;;;;;;5095357;28;20432;-82
2021/10/13 02:21:20;;;;;;;36.67;26.95;;;231.00;2252.80;;;;;;5095405;28;20117;-80
2021/10/13 02:23:47;;;;;;;41.47;31.20;;;230.90;2252.80;;;;;;5095096;28;20036;-83
2021/10/13 02:26:22;;;;;;;39.08;28.42;;;230.90;2252.80;;;;;;5095332;28;20031;-81
2021/10/13 02:28:58;;;;;;;41.80;31.15;;;230.90;2252.80;;;;;;5095430;28;20024;-82
2021/10/13 02:31:24;;;;;;;42.08;31.35;;;230.90;2252.80;;;;;;5096399;28;20032;-80
2021/10/13 02:33:50;;;;;;;47.28;35.47;;;230.90;2252.80;;;;;;5095999;28;20048;-81
2021/10/13 02:36:16;;;;;;;53.75;37.15;;;230.90;2252.80;;;;;;5094864;28;20032;-80
2021/10/13 02:38:42;;;;;;;44.28;33.53;;;230.90;2252.80;;;;;;5095007;28;20028;-81
2021/10/13 02:41:08;;;;;;;42.63;31.52;;;230.90;2252.80;;;;;;5095012;28;20032;-81
2021/10/13 02:43:35;;;;;;;34.92;29.33;;;231.00;2252.80;;;;;;5094716;28;20434;-81
2021/10/13 02:46:24;;;;;;;48.30;34.67;;;231.00;2252.80;;;;;;5094656;28;20509;-81
2021/10/13 02:49:10;;;;;;;48.67;36.10;;;230.80;2252.80;;;;;;5094728;28;20078;-80
2021/10/13 02:51:56;;;;;;;57.80;40.70;;;230.90;2252.80;;;;;;5094500;28;20384;-81
2021/10/13 02:55:05;;;;;;;45.95;32.65;;;230.90;2252.80;;;;;;5094950;28;20388;-81
2021/10/13 02:57:40;;;;;;;40.15;28.25;;;230.90;2252.80;;;;;;5052942;28;20048;-79
2021/10/13 03:00:07;;;;;;;39.35;29.52;;;230.80;2252.80;;;;;;5088878;28;20494;-81
2021/10/13 03:02:41;;;;;;;42.72;30.95;;;230.70;2252.80;;;;;;5094451;28;20106;-83
2021/10/13 03:05:08;;;;;;;41.20;30.02;;;230.80;2252.80;;;;;;5095834;28;20024;-82
2021/10/13 03:07:42;;;;;;;42.67;30.80;;;230.80;2252.80;;;;;;5094477;28;20035;-82
2021/10/13 03:10:09;;;;;;;38.63;29.63;;;230.80;2252.80;;;;;;5094379;28;20031;-81
2021/10/13 03:12:50;;;;;;;35.72;25.80;;;230.70;2252.80;;;;;;5095307;28;20016;-79
2021/10/13 03:15:17;;;;;;;36.67;27.67;;;230.60;2252.80;;;;;;5094313;28;20373;-79
2021/10/13 03:17:49;;;;;;;33.90;26.13;;;230.60;2252.80;;;;;;5094323;28;20028;-82
2021/10/13 03:20:16;;;;;;;37.63;26.23;;;230.60;2252.80;;;;;;5094054;28;20020;-82
2021/10/13 03:22:43;;;;;;;32.50;25.52;;;230.60;2252.80;;;;;;5094362;28;20119;-80
2021/10/13 03:25:09;;;;;;;34.70;24.70;;;230.50;2252.80;;;;;;5093426;28;20024;-82
2021/10/13 03:27:35;;;;;;;34.95;26.30;;;230.60;2252.80;;;;;;5093944;28;20025;-79
2021/10/13 03:30:01;;;;;;;31.35;24.95;;;230.50;2252.80;;;;;;5093913;28;20669;-81
2021/10/13 03:32:27;;;;;;;39.38;27.13;;;230.50;2252.80;;;;;;5093682;28;20028;-81
2021/10/13 03:34:52;;;;;;;51.65;30.40;;;230.40;2252.80;;;;;;5093722;28;20044;-80
2021/10/13 03:37:18;;;;;;;38.10;26.98;;;205.60;2252.80;;;;;;5093765;28;20127;-81
2021/10/13 03:39:48;;;;;;;37.15;27.58;;;205.70;2252.80;;;;;;5093381;28;20020;-81
2021/10/13 03:42:14;;;;;;;35.17;27.45;;;205.70;2252.80;;;;;;5095062;28;20016;-81
2021/10/13 03:44:40;;;;;;;105.15;58.30;;;205.60;2252.80;;;;;;5094946;28;20103;-80
2021/10/13 03:47:06;;;;;;;77.88;49.45;;;205.60;2252.80;;;;;;5093456;28;20495;-81
2021/10/13 03:49:33;;;;;;;72.03;47.72;;;205.50;2252.80;;;;;;5093569;28;20058;-80
2021/10/13 03:51:59;;;;;;;46.17;33.92;;;205.50;2252.80;;;;;;5093527;28;20490;-81
2021/10/13 03:54:25;;;;;;;49.97;35.13;;;205.60;2252.80;;;;;;5094297;28;20493;-82
2021/10/13 03:56:51;;;;;;;48.83;37.03;;;205.60;2252.80;;;;;;5092737;28;20070;-82
2021/10/13 03:59:17;;;;;;;43.83;33.70;;;205.50;2252.80;;;;;;5094837;28;20059;-81
2021/10/13 04:01:43;;;;;;;50.33;37.78;;;205.50;2252.80;;;;;;5093251;28;20073;-81
2021/10/13 04:04:09;;;;;;;49.03;36.30;;;205.60;2252.80;;;;;;5093392;28;20024;-81
2021/10/13 04:06:34;;;;;;;116.28;95.28;;;205.40;2252.80;;;;;;5093248;28;20028;-81
2021/10/13 04:09:00;;;;;;;135.27;116.72;;;205.30;2252.80;;;;;;5093094;28;20024;-80
2021/10/13 04:11:26;;;;;;;119.97;89.63;;;205.40;2252.80;;;;;;5093227;28;20398;-79
2021/10/13 04:13:52;;;;;;;101.57;73.90;;;205.50;2252.80;;;;;;5093172;28;20040;-80
2021/10/13 04:16:18;;;;;;;68.68;48.42;;;205.60;2252.80;;;;;;5092725;28;20086;-82
2021/10/13 04:18:44;;;;;;;46.50;32.83;;;205.30;2252.80;;;;;;5093058;28;20088;-80
2021/10/13 04:21:09;;;;;;;43.70;29.92;;;205.30;2252.80;;;;;;5093937;28;20027;-78
2021/10/13 04:23:35;;;;;;;40.70;27.95;;;205.10;2252.80;;;;;;5093020;28;20062;-80
2021/10/13 04:26:01;;;;;;;38.60;27.80;;;205.10;2252.80;;;;;;5093090;28;20039;-81
2021/10/13 04:28:27;;;;;;;39.97;29.63;;;205.20;2252.80;;;;;;5092783;28;20483;-84
2021/10/13 04:30:52;;;;;;;39.65;28.77;;;205.20;2252.80;;;;;;5092956;28;20031;-81
2021/10/13 04:33:18;;;;;;;53.10;40.00;;;205.10;2252.80;;;;;;5092910;28;20031;-81
2021/10/13 04:35:44;;;;;;;44.85;31.42;;;205.10;2252.80;;;;;;5092527;28;20040;-82
2021/10/13 04:38:10;;;;;;;47.17;33.40;;;205.00;2252.80;;;;;;5092883;28;20430;-83
2021/10/13 04:40:36;;;;;;;52.88;33.40;;;205.00;2252.80;;;;;;5092976;28;20031;-83
2021/10/13 04:43:02;;;;;;;45.72;33.13;;;205.00;2252.80;;;;;;5092575;28;20051;-82
2021/10/13 04:45:28;;;;;;;55.88;39.65;;;205.10;2252.80;;;;;;5093760;28;20032;-84
2021/10/13 04:47:53;;;;;;;52.85;36.88;;;205.00;2252.80;;;;;;5094058;28;20023;-81
2021/10/13 04:50:19;;;;;;;46.95;34.20;;;205.10;2252.80;;;;;;5093761;28;20024;-80
2021/10/13 04:52:45;;;;;;;51.22;37.28;;;205.20;2252.80;;;;;;5093935;28;20479;-82
2021/10/13 04:55:11;;;;;;;60.35;41.85;;;205.10;2252.80;;;;;;5092730;28;20034;-79
2021/10/13 04:57:38;;;;;;;77.25;53.17;;;205.10;2252.80;;;;;;5092387;28;20063;-82
2021/10/13 05:00:05;;;;;;;140.57;95.05;;;205.10;2252.80;;;;;;5092595;28;20027;-82
2021/10/13 05:02:31;;;;;;;151.52;99.38;;;205.10;2252.80;;;;;;5092482;28;20044;-80
2021/10/13 05:04:57;;;;;;;91.75;63.40;;;205.20;2252.80;;;;;;5092274;28;20052;-81
2021/10/13 05:07:22;;;;;;;63.53;43.72;;;205.20;2252.80;;;;;;5092676;28;20537;-81
2021/10/13 05:09:48;;;;;;;46.63;35.30;;;205.20;2252.80;;;;;;5097786;28;20021;-81
2021/10/13 05:12:14;;;;;;;46.47;33.97;;;205.10;2252.80;;;;;;5096471;28;20024;-79
2021/10/13 05:14:40;;;;;;;39.38;29.42;;;205.20;2252.80;;;;;;5096673;28;20020;-82
2021/10/13 05:17:06;;;;;;;60.63;42.88;;;205.10;2252.80;;;;;;5097012;28;20034;-82
2021/10/13 05:19:32;;;;;;;63.33;40.72;;;205.00;2252.80;;;;;;5096462;28;20028;-81
2021/10/13 05:21:58;;;;;;;49.63;35.67;;;205.00;2252.80;;;;;;5096411;28;20078;-82
2021/10/13 05:24:23;;;;;;;48.00;37.10;;;205.10;2252.80;;;;;;5096146;28;20020;-80
2021/10/13 05:26:49;;;;;;;79.35;52.38;;;204.80;2252.80;;;;;;5096415;28;20123;-81
2021/10/13 05:29:15;;;;;;;87.18;59.08;;;180.10;2252.80;;;;;;5097329;28;20028;-82
2021/10/13 05:31:41;;;;;;;100.57;66.03;;;204.80;2252.80;;;;;;5097019;28;20102;-81
2021/10/13 05:34:07;;;;;;;68.85;48.67;;;205.10;2252.80;;;;;;5097393;28;20044;-82
2021/10/13 05:36:32;;;;;;;68.82;44.65;;;205.10;2252.80;;;;;;5096049;28;20038;-81
2021/10/13 05:38:58;;;;;;;52.20;37.05;;;205.10;2252.80;;;;;;5097146;28;20070;-81
2021/10/13 05:41:24;;;;;;;47.10;35.28;;;205.20;2252.80;;;;;;5095821;28;20029;-80
2021/10/13 05:43:50;;;;;;;45.65;33.92;;;205.20;2252.80;;;;;;5096029;28;20372;-81
2021/10/13 05:46:16;;;;;;;48.75;31.80;;;205.30;2252.80;;;;;;5095685;28;20031;-82
2021/10/13 05:48:42;;;;;;;59.70;43.97;;;205.40;2252.80;;;;;;5096055;28;20028;-80
2021/10/13 05:51:08;;;;;;;58.78;39.35;;;205.40;2252.80;;;;;;5096998;28;20526;-81
2021/10/13 05:53:33;;;;;;;53.55;40.60;;;205.40;2252.80;;;;;;5097005;28;20052;-84
2021/10/13 05:55:59;;;;;;;63.15;44.90;;;205.40;2252.80;;;;;;5096558;28;20036;-80
2021/10/13 05:58:26;;;;;;;64.85;47.38;;;205.20;2252.80;;;;;;5099221;28;20024;-80
2021/10/13 06:00:54;;;;;;;84.85;62.13;;;205.20;2252.80;;;;;;5098962;28;20028;-80
2021/10/13 06:03:20;;;;;;;60.53;44.67;;;205.20;2252.80;;;;;;5100555;28;20026;-80
2021/10/13 06:05:46;;;;;;;61.05;41.13;;;205.20;2252.80;;;;;;5100814;28;20464;-80
2021/10/13 06:08:13;;;;;;;86.32;56.65;;;205.20;2252.80;;;;;;5098392;28;20069;-83
2021/10/13 06:10:39;;;;;;;79.30;56.53;;;205.20;2252.80;;;;;;5097660;28;20034;-83
2021/10/13 06:13:05;;;;;;;80.78;58.08;;;205.20;2252.80;;;;;;5098111;28;20589;-81
2021/10/13 06:15:37;;;;;;;101.90;66.75;;;205.20;2252.80;;;;;;5098068;28;20044;-81
2021/10/13 06:18:05;;;;;;;110.10;72.43;;;205.20;2252.80;;;;;;5098145;28;20372;-81
2021/10/13 06:20:31;;;;;;;92.70;62.25;;;205.30;2252.80;;;;;;5095078;28;20024;-81
2021/10/13 06:22:57;;;;;;;96.93;63.83;;;205.30;2252.80;;;;;;5095257;28;20078;-82
2021/10/13 06:25:23;;;;;;;101.55;69.75;;;205.30;2252.80;;;;;;5095279;28;20024;-78
2021/10/13 06:27:48;;;;;;;93.88;65.78;;;205.40;2252.80;;;;;;5095907;28;20020;-80
2021/10/13 06:30:15;;;;;;;104.32;73.35;;;205.40;2252.80;;;;;;5095123;28;20058;-80
2021/10/13 06:32:41;;;;;;;79.85;59.55;;;205.40;2252.80;;;;;;5095962;28;20387;-77
2021/10/13 06:35:07;;;;;;;59.92;45.22;;;205.50;2252.80;;;;;;5095988;28;20052;-80
2021/10/13 06:37:33;;;;;;;53.22;40.55;;;205.40;2252.80;;;;;;5094940;28;20505;-82
2021/10/13 06:39:58;;;;;;;72.20;48.17;;;205.50;2252.80;;;;;;5094811;28;20054;-81
2021/10/13 06:42:24;;;;;;;121.28;76.30;;;205.60;2252.80;;;;;;5094608;28;20026;-78
2021/10/13 06:44:50;;;;;;;145.80;86.28;;;205.60;2252.80;;;;;;5094741;28;20490;-78
2021/10/13 06:47:16;;;;;;;131.02;86.63;;;205.50;2252.80;;;;;;5094596;28;20505;-78
2021/10/13 06:49:42;;;;;;;108.05;70.72;;;205.60;2252.80;;;;;;5094335;28;20028;-77
2021/10/13 06:52:07;;;;;;;110.32;75.22;;;205.60;2252.80;;;;;;5094537;28;20031;-78
2021/10/13 06:54:33;;;;;;;98.03;69.40;;;205.60;2252.80;;;;;;5094419;28;20081;-77
2021/10/13 06:56:59;;;;;;;85.93;59.67;;;205.60;2252.80;;;;;;5094078;28;20028;-80
2021/10/13 06:59:25;;;;;;;91.63;65.13;;;205.60;2252.80;;;;;;5094507;28;20148;-77
2021/10/13 07:01:51;;;;;;;93.70;70.45;;;205.70;2252.80;;;;;;5094413;28;20483;-77
2021/10/13 07:04:17;;;;;;;71.18;57.20;;;205.70;2252.80;;;;;;5094138;28;20024;-78
2021/10/13 07:06:43;;;;;;;64.90;53.72;;;205.70;2252.80;;;;;;5094168;28;20375;-78
2021/10/13 07:09:09;;;;;;;84.65;64.18;;;205.70;2252.80;;;;;;5093966;28;20024;-76
2021/10/13 07:11:35;;;;;;;73.20;56.25;;;205.70;2252.80;;;;;;5095407;28;20448;-79
2021/10/13 07:14:03;;;;;;;69.70;52.65;;;205.70;2252.80;;;;;;5094147;28;20463;-79
2021/10/13 07:16:30;;;;;;;57.88;47.03;;;205.70;2252.80;;;;;;5093715;28;20082;-77
2021/10/13 07:18:55;;;;;;;56.80;43.97;;;230.40;2252.80;;;;;;5095270;28;20031;-77
2021/10/13 07:21:21;;;;;;;72.13;48.05;;;230.40;2252.80;;;;;;5094940;28;20028;-78
2021/10/13 07:23:47;;;;;;;98.65;62.88;;;230.40;2252.80;;;;;;5093677;28;20498;-78
2021/10/13 07:26:13;;;;;;;475.70;263.92;;;230.50;2252.80;;;;;;5094775;28;20113;-79
2021/10/13 07:28:41;;;;;;;188.85;114.18;;;230.50;2252.80;;;;;;5094818;28;20491;-82
2021/10/13 07:31:08;;;;;;;63.83;47.13;;;230.60;2252.80;;;;;;5095219;28;20455;-82
2021/10/13 07:33:34;;;;;;;66.53;52.75;;;230.60;2252.80;;;;;;5093863;28;20031;-82
2021/10/13 07:36:00;;;;;;;59.05;42.72;;;230.60;2252.80;;;;;;5094182;28;20032;-85
2021/10/13 07:38:26;;;;;;;57.20;41.20;;;230.70;2252.80;;;;;;5093879;28;20036;-81
2021/10/13 07:40:52;;;;;;;50.83;38.00;;;230.60;2252.80;;;;;;5093755;28;20127;-78
2021/10/13 07:43:18;;;;;;;89.43;67.47;;;230.60;2252.80;;;;;;5097619;28;20025;-77
2021/10/13 07:45:44;;;;;;;73.47;57.13;;;230.50;2252.80;;;;;;5103075;28;20024;-77
2021/10/13 07:48:10;;;;;;;66.97;48.75;;;230.60;2252.80;;;;;;5102799;28;20525;-78
2021/10/13 07:50:36;;;;;;;62.65;44.67;;;230.80;2252.80;;;;;;5102175;28;20515;-78
2021/10/13 07:53:02;;;;;;;65.03;41.55;;;230.80;2252.80;;;;;;5101690;28;20058;-76
2021/10/13 07:55:28;;;;;;;64.50;45.40;;;230.90;2252.80;;;;;;5101130;28;20464;-77
2021/10/13 07:57:54;;;;;;;53.80;41.00;;;231.00;2252.80;;;;;;5100595;28;20035;-76
2021/10/13 08:00:20;;;;;;;53.05;38.22;;;231.00;2252.80;;;;;;5098701;28;20020;-76
2021/10/13 08:02:47;;;;;;;61.20;45.38;;;231.10;2252.80;;;;;;5102510;28;20058;-81
2021/10/13 08:05:17;;;;;;;68.20;47.20;;;256.30;2252.80;;;;;;5104722;28;20034;-77
2021/10/13 08:07:44;;;;;;;74.75;53.92;;;231.30;2252.80;;;;;;5098880;28;20031;-76
2021/10/13 08:10:10;;;;;;;73.43;49.65;;;231.30;2252.80;;;;;;5099753;28;20145;-77
2021/10/13 08:12:36;;;;;;;69.90;48.97;;;256.00;2252.80;;;;;;5100688;28;20039;-77
2021/10/13 08:15:03;;;;;;;56.63;42.88;;;256.00;2252.80;;;;;;5099666;28;20032;-80
2021/10/13 08:17:28;;;;;;;53.55;39.58;;;231.20;2252.80;;;;;;5095760;28;20056;-79
2021/10/13 08:19:54;;;;;;;67.93;48.90;;;231.30;2252.80;;;;;;5092647;28;20085;-78
2021/10/13 08:22:22;;;;;;;58.00;41.95;;;256.00;2252.80;;;;;;5092621;28;20032;-78
2021/10/13 08:24:48;;;;;;;89.57;66.90;;;256.20;2252.80;;;;;;5092913;28;20028;-78
2021/10/13 08:27:14;;;;;;;64.43;45.67;;;256.20;2252.80;;;;;;5092570;28;20464;-80
2021/10/13 08:29:40;;;;;;;59.35;43.22;;;256.10;2252.80;;;;;;5092796;28;20024;-77
2021/10/13 08:32:06;;;;;;;48.40;37.60;;;256.20;2252.80;;;;;;5093827;28;20020;-79
2021/10/13 08:34:32;;;;;;;53.50;41.08;;;256.30;2252.80;;;;;;5092002;28;20142;-78
2021/10/13 08:36:58;;;;;;;67.00;47.70;;;256.50;2252.80;;;;;;5092592;28;20031;-76
2021/10/13 08:39:24;;;;;;;56.90;42.17;;;256.50;2252.80;;;;;;5093958;28;20028;-76
2021/10/13 08:41:50;;;;;;;64.18;48.83;;;256.60;2252.80;;;;;;5093370;28;20030;-77
2021/10/13 08:44:16;;;;;;;51.63;40.85;;;256.60;2252.80;;;;;;5092183;28;20115;-77
2021/10/13 08:46:43;;;;;;;53.47;43.50;;;256.60;2252.80;;;;;;5092455;28;20032;-79
2021/10/13 08:49:09;;;;;;;54.67;40.35;;;256.70;2252.80;;;;;;5092224;28;20028;-77
2021/10/13 08:51:36;;;;;;;63.38;44.05;;;281.90;2278.40;;;;;;5092323;28;20020;-77
2021/10/13 08:54:03;;;;;;;62.00;45.53;;;281.70;2278.40;;;;;;5093329;28;20043;-76
2021/10/13 08:56:29;;;;;;;54.63;43.45;;;281.70;2278.40;;;;;;5092425;28;20028;-77
2021/10/13 08:58:55;;;;;;;55.17;39.83;;;281.80;2278.40;;;;;;5093538;28;20027;-76
2021/10/13 09:01:21;;;;;;;54.70;39.13;;;281.90;2278.40;;;;;;5090152;28;20028;-75
2021/10/13 09:03:55;;;;;;;39.75;30.52;;;281.80;2278.40;;;;;;5091633;28;20020;-78
2021/10/13 09:06:29;;;;;;;30.10;22.70;;;282.10;2278.40;;;;;;5091806;28;20638;-79
2021/10/13 09:09:07;;;;;;;33.22;23.20;;;282.20;2278.40;;;;;;5090897;28;20063;-78
2021/10/13 09:11:44;;;;;;;35.25;25.65;;;282.30;2278.40;;;;;;5091690;28;20070;-76
2021/10/13 09:14:31;;;;;;;35.05;22.75;;;282.50;2278.40;;;;;;5091503;28;20028;-79
2021/10/13 09:17:00;;;;;;;28.80;19.02;;;307.30;2304.00;;;;;;5092027;28;20046;-78
2021/10/13 09:19:48;;;;;;;32.10;21.35;;;307.30;2304.00;;;;;;5091588;28;20447;-79
2021/10/13 09:22:16;;;;;;;23.33;17.73;;;307.30;2304.00;;;;;;5092600;28;20028;-76
2021/10/13 09:24:52;;;;;;;32.97;21.63;;;307.30;2304.00;;;;;;5092298;28;20073;-75
2021/10/13 09:27:25;;;;;;;24.98;17.33;;;307.50;2304.00;;;;;;5091711;28;20036;-78
2021/10/13 09:29:58;;;;;;;36.58;22.55;;;307.50;2304.00;;;;;;5092436;28;20039;-77
2021/10/13 09:32:28;;;;;;;24.45;16.88;;;307.70;2304.00;;;;;;5091594;28;20471;-78
2021/10/13 09:34:57;;;;;;;21.67;16.42;;;307.80;2304.00;;;;;;5091121;28;20056;-78
2021/10/13 09:37:24;;;;;;;22.98;15.85;;;307.80;2304.00;;;;;;5090853;28;20120;-78
2021/10/13 09:40:04;;;;;;;24.13;18.23;;;307.90;2304.00;;;;;;5091486;28;20032;-78
2021/10/13 09:42:41;;;;;;;32.20;22.42;;;307.90;2304.00;;;;;;5092392;28;20460;-78
2021/10/13 09:45:11;;;;;;;33.17;22.33;;;308.00;2304.00;;;;;;5071032;28;20119;-79
2021/10/13 09:47:38;;;;;;;26.38;18.40;;;308.00;2304.00;;;;;;5071087;28;20029;-79
2021/10/13 09:50:09;;;;;;;31.25;22.85;;;308.00;2304.00;;;;;;5070617;28;20452;-78
2021/10/13 09:52:34;;;;;;;29.00;20.67;;;307.90;2304.00;;;;;;5072399;28;20082;-78
2021/10/13 09:55:08;;;;;;;21.35;15.32;;;307.90;2304.00;;;;;;5076022;28;20024;-77
2021/10/13 09:57:48;;;;;;;34.13;23.63;;;307.90;2304.00;;;;;;5094899;28;20032;-76
2021/10/13 10:00:16;;;;;;;26.95;20.95;;;307.80;2304.00;;;;;;5094633;28;20020;-76
2021/10/13 10:02:55;;;;;;;26.00;20.08;;;307.80;2304.00;;;;;;5094387;28;20028;-79
2021/10/13 10:05:36;;;;;;;28.77;21.65;;;307.80;2304.00;;;;;;5094508;28;20081;-77
2021/10/13 10:08:13;;;;;;;29.55;23.27;;;307.80;2304.00;;;;;;5094854;28;20043;-76
2021/10/13 10:11:01;;;;;;;25.20;20.67;;;307.80;2304.00;;;;;;5094196;28;20081;-77
2021/10/13 10:13:53;;;;;;;30.17;19.50;;;307.90;2304.00;;;;;;5094452;28;20031;-78
2021/10/13 10:16:31;;;;;;;26.75;19.45;;;308.00;2304.00;;;;;;5091846;28;20055;-78
2021/10/13 10:19:41;;;;;;;25.25;20.45;;;308.10;2304.00;;;;;;5093741;28;20075;-79
2021/10/13 10:22:12;;;;;;;25.30;20.90;;;332.80;2329.60;;;;;;5036021;28;20029;-77
2021/10/13 10:24:40;;;;;;;26.67;19.45;;;332.90;2329.60;;;;;;5086781;28;20111;-77
2021/10/13 10:27:30;;;;;;;46.63;36.40;;;333.00;2329.60;;;;;;5095048;28;20504;-78
2021/10/13 10:30:08;;;;;;;25.05;21.33;;;333.00;2329.60;;;;;;5094406;28;20028;-76
2021/10/13 10:32:39;;;;;;;31.00;22.95;;;333.10;2329.60;;;;;;5093461;28;20115;-77
2021/10/13 10:35:05;;;;;;;27.90;22.30;;;333.20;2329.60;;;;;;5093963;28;20044;-77
2021/10/13 10:37:50;;;;;;;23.10;18.50;;;333.20;2329.60;;;;;;5094161;28;20055;-78
2021/10/13 10:40:23;;;;;;;47.15;34.13;;;333.20;2329.60;;;;;;5094752;28;20052;-77
2021/10/13 10:42:56;;;;;;;35.17;27.15;;;333.30;2329.60;;;;;;5095212;28;20024;-80
2021/10/13 10:45:25;;;;;;;49.50;38.58;;;333.20;2329.60;;;;;;5093920;28;20035;-75
2021/10/13 10:48:00;;;;;;;54.70;45.83;;;333.30;2329.60;;;;;;5093061;28;20036;-75
2021/10/13 10:50:38;;;;;;;35.25;29.55;;;333.30;2329.60;;;;;;5093680;28;20027;-77
2021/10/13 10:53:22;;;;;;;28.23;22.45;;;333.30;2329.60;;;;;;5094687;28;20054;-75
2021/10/13 10:55:50;;;;;;;25.10;20.55;;;333.30;2329.60;;;;;;5093142;28;20032;-77
2021/10/13 10:58:27;;;;;;;27.60;22.00;;;333.30;2329.60;;;;;;5093511;28;20078;-77
2021/10/13 11:01:13;;;;;;;32.42;22.35;;;333.30;2329.60;;;;;;5093271;28;20051;-76
2021/10/13 11:03:40;;;;;;;53.03;42.03;;;333.30;2329.60;;;;;;5093140;28;20026;-78
2021/10/13 11:06:18;;;;;;;33.95;26.75;;;333.20;2329.60;;;;;;5094656;28;20024;-76
2021/10/13 11:08:58;;;;;;;30.80;25.25;;;333.20;2329.60;;;;;;5093063;28;20024;-76
2021/10/13 11:11:27;;;;;;;33.42;27.20;;;333.20;2329.60;;;;;;5093056;28;20024;-78
2021/10/13 11:13:59;;;;;;;34.28;23.73;;;333.10;2329.60;;;;;;5093259;28;20459;-77
2021/10/13 11:16:26;;;;;;;58.90;46.65;;;333.10;2329.60;;;;;;5092693;28;20074;-80
2021/10/13 11:18:51;;;;;;;49.00;34.15;;;333.10;2329.60;;;;;;5092790;28;20036;-76
2021/10/13 11:21:17;;;;;;;45.22;29.95;;;333.10;2329.60;;;;;;5092886;28;20097;-77
2021/10/13 11:23:44;;;;;;;35.20;24.13;;;333.10;2329.60;;;;;;5093185;28;20024;-76
2021/10/13 11:26:10;;;;;;;32.47;23.33;;;333.00;2329.60;;;;;;5092870;28;20067;-77
2021/10/13 11:28:39;;;;;;;33.58;24.52;;;333.00;2329.60;;;;;;5094118;28;20032;-78
2021/10/13 11:31:07;;;;;;;38.35;26.90;;;333.00;2329.60;;;;;;5094508;28;20069;-79
2021/10/13 11:33:34;;;;;;;38.72;27.90;;;333.00;2329.60;;;;;;5072576;28;20029;-78
2021/10/13 11:36:06;;;;;;;35.65;26.92;;;333.00;2329.60;;;;;;5073770;28;20032;-79
2021/10/13 11:38:34;;;;;;;;;;;333.10;2329.60;;;;;;5073154;28;20043;-78
2021/10/13 11:41:15;;;;;;;36.95;25.30;;;333.10;2329.60;;;;;;5106067;28;20322;-77
2021/10/13 11:43:42;;;;;;;41.58;27.30;;;333.10;2329.60;;;;;;5072272;28;20021;-77
2021/10/13 11:46:16;;;;;;;31.20;23.10;;;333.00;2329.60;;;;;;5072090;28;20029;-78
2021/10/13 11:48:42;;;;;;;57.72;41.88;;;333.00;2329.60;;;;;;5072475;28;20029;-79
2021/10/13 11:51:13;;;;;;;52.53;36.80;;;332.90;2329.60;;;;;;5072058;28;20602;-79
2021/10/13 11:53:40;;;;;;;42.83;29.33;;;332.90;2329.60;;;;;;5071924;28;20036;-77
2021/10/13 11:56:13;;;;;;;47.42;32.72;;;332.80;2329.60;;;;;;5072344;28;20392;-79
2021/10/13 11:58:40;;;;;;;51.22;36.40;;;332.80;2329.60;;;;;;5072269;28;20123;-77
2021/10/13 12:01:06;;;;;;;49.45;37.08;;;308.10;2304.00;;;;;;5083801;28;20551;-78
2021/10/13 12:03:35;;;;;;;54.33;40.38;;;308.10;2304.00;;;;;;5093135;28;20511;-77
2021/10/13 12:06:02;;;;;;;38.30;29.13;;;308.10;2304.00;;;;;;5092291;28;20472;-77
2021/10/13 12:08:31;;;;;;;29.63;21.83;;;308.10;2304.00;;;;;;5089949;28;20117;-78